Maupin, OR

10:08 PM PDT on July 27, 2016 (GMT -0700)
Sportsmans Park | | Change Station

Elev 2293 ft 45.22 °N, 121.40 °W | Updated 6 seconds ago

Clear
Clear
68.7 °F
Feels Like 68.7 °F
N
2.2
Wind Variable Wind from West

Today
High -- | Low -- °F
--% Chance of Precip.
Yesterday
High -- | Low -- °F
Precip. -- in
Pressure 30.01 in
Visibility 10.0 miles
Clouds Clear
Dew Point 51 °F
Humidity 54%
Rainfall 0.00 in
Snow Depth Not available.
5:45 AM 8:37 PM
Waning Crescent, 36% visible
METAR KRDM 280456Z AUTO 34010KT 10SM CLR 26/05 A3010 RMK AO2 SLP161 T02610050
Pressure 30.01 in
Visibility 10.0 miles
Clouds Clear
Dew Point 51 °F
Humidity 54%
Rainfall 0.00 in
Snow Depth Not available.
5:45 AM 8:37 PM
Waning Crescent, 36% visible
METAR KRDM 280456Z AUTO 34010KT 10SM CLR 26/05 A3010 RMK AO2 SLP161 T02610050

10-Day Weather Forecast

Almanac

Astronomy

Jul. 27, 2016 Rise Set
Actual Time
Civil Twilight
Nautical Twilight
Astronomical Twilight
Moon
Length of Visible Light
Length of Day
Tomorrow will be .
, % of the Moon is Illuminated

Today's Extremes

State Highs State Lows

Community

WunderPhotos

Upload Photos

1,928,060 photos uploaded!

WunderBlog® & News

Nearby

Air Quality

  Air Quality AQ Index Pollutant
Not available.

Snow Depth

Station Depth Elevation

Earthquake Activity

City Distance Mag. Time & Date
Minimum magnitude displayed is 2.5.

Coastal Water Temperatures

Place Temperature

Stations

Nearby Weather Stations

Station Location Temp. Windchill Dew Point Humidity Wind Precip. Elev Updated Type
                   

Watches & Warnings

There are currently no watches in effect.